createdAt,value
2023-01-04T00:01:40.579Z,7.80
2023-01-04T00:06:43.364Z,7.13
2023-01-04T00:11:46.082Z,7.35
2023-01-04T00:16:48.984Z,8.32
2023-01-04T00:21:51.785Z,8.43
2023-01-04T00:26:54.459Z,7.93
2023-01-04T00:31:58.119Z,7.65
2023-01-04T00:37:00.862Z,9.15
2023-01-04T00:42:06.169Z,8.88
2023-01-04T00:47:08.925Z,10.32
2023-01-04T00:52:11.729Z,8.63
2023-01-04T00:57:14.601Z,10.18
2023-01-04T01:02:17.719Z,10.45
2023-01-04T01:07:20.648Z,9.98
2023-01-04T01:12:23.409Z,8.43
2023-01-04T01:17:26.048Z,11.27
2023-01-04T01:22:28.715Z,11.35
2023-01-04T01:27:31.390Z,10.55
2023-01-04T01:32:34.123Z,11.75
2023-01-04T01:37:36.797Z,14.48
2023-01-04T01:42:39.569Z,12.25
2023-01-04T01:47:46.648Z,15.30
2023-01-04T01:52:50.163Z,11.85
2023-01-04T01:57:54.115Z,14.63
2023-01-04T02:03:19.622Z,11.50
2023-01-04T02:08:25.197Z,11.43
2023-01-04T02:13:49.297Z,13.77
2023-01-04T02:19:49.125Z,14.57
2023-01-04T02:25:09.943Z,11.75
2023-01-04T02:30:43.760Z,14.68
2023-01-04T02:36:00.145Z,14.10
2023-01-04T02:41:11.594Z,13.95
2023-01-04T02:46:27.413Z,15.52
2023-01-04T02:51:33.580Z,16.17
2023-01-04T02:57:02.681Z,18.73
2023-01-04T03:02:52.578Z,18.05
2023-01-04T03:08:01.937Z,19.25
2023-01-04T03:13:28.260Z,22.98
2023-01-04T03:18:35.116Z,21.15
2023-01-04T03:23:58.119Z,20.50
2023-01-04T03:29:25.557Z,23.00
2023-01-04T03:34:46.853Z,25.70
2023-01-04T03:40:42.371Z,28.40
2023-01-04T03:46:07.714Z,23.13
2023-01-04T03:51:26.404Z,23.42
2023-01-04T03:56:30.161Z,25.52
2023-01-04T04:01:32.969Z,23.93
2023-01-04T04:06:54.182Z,20.92
2023-01-04T04:11:56.979Z,21.17
2023-01-04T04:17:01.212Z,22.20
2023-01-04T04:22:04.254Z,27.08
2023-01-04T04:27:06.964Z,23.85
2023-01-04T04:32:09.639Z,19.75
2023-01-04T04:37:12.542Z,25.75
2023-01-04T04:42:15.215Z,27.23
2023-01-04T04:47:17.895Z,26.83
2023-01-04T04:52:20.655Z,27.08
2023-01-04T04:57:23.372Z,32.65
2023-01-04T05:02:26.485Z,22.15
2023-01-04T05:07:29.365Z,26.77
2023-01-04T05:12:55.836Z,29.55
2023-01-04T05:18:00.495Z,27.00
2023-01-04T05:23:03.250Z,28.60
2023-01-04T05:28:06.869Z,24.08
2023-01-04T05:33:10.202Z,25.95
2023-01-04T05:38:13.464Z,26.30
2023-01-04T05:43:16.930Z,28.95
2023-01-04T05:48:19.907Z,28.48
2023-01-04T05:53:22.652Z,28.48
2023-01-04T05:58:25.545Z,26.15
2023-01-04T06:03:28.588Z,26.65
2023-01-04T06:08:31.396Z,26.83
2023-01-04T06:13:34.237Z,28.27
2023-01-04T06:18:37.117Z,24.67
2023-01-04T06:23:39.836Z,24.00
2023-01-04T06:28:42.526Z,27.20
2023-01-04T06:33:45.257Z,29.73
2023-01-04T06:38:49.052Z,34.05
2023-01-04T06:43:51.750Z,26.17
2023-01-04T06:48:54.563Z,28.42
2023-01-04T06:53:57.333Z,23.23
2023-01-04T06:59:00.290Z,27.30
2023-01-04T07:04:03.331Z,22.67
2023-01-04T07:09:06.082Z,24.83
2023-01-04T07:14:08.825Z,18.27
2023-01-04T07:19:11.482Z,26.10
2023-01-04T07:24:14.219Z,24.63
2023-01-04T07:29:19.585Z,20.58
2023-01-04T07:34:24.622Z,22.50
2023-01-04T07:39:27.346Z,26.48
2023-01-04T07:44:30.074Z,28.35
2023-01-04T07:49:32.808Z,24.42
2023-01-04T07:54:35.548Z,22.85
2023-01-04T07:59:38.243Z,22.90
2023-01-04T08:04:41.117Z,21.15
2023-01-04T08:09:43.934Z,26.40
2023-01-04T08:14:46.653Z,20.05
2023-01-04T08:19:49.335Z,21.25
2023-01-04T08:24:52.007Z,23.70
2023-01-04T08:29:54.689Z,20.05
2023-01-04T08:34:57.439Z,21.83
2023-01-04T08:40:00.160Z,23.48
2023-01-04T08:45:02.932Z,22.02
2023-01-04T08:50:10.780Z,22.13
2023-01-04T08:55:16.794Z,19.95
2023-01-04T09:00:22.199Z,19.63
2023-01-04T09:05:26.316Z,19.90
2023-01-04T09:10:29.037Z,21.93
2023-01-04T09:15:33.172Z,17.73
2023-01-04T09:20:35.822Z,16.17
2023-01-04T09:25:41.682Z,15.95
2023-01-04T09:30:44.376Z,16.10
2023-01-04T09:35:47.028Z,15.45
2023-01-04T09:40:54.926Z,16.77
2023-01-04T09:46:02.071Z,16.05
2023-01-04T09:51:06.682Z,16.20
2023-01-04T09:56:24.733Z,14.48
2023-01-04T10:01:49.835Z,15.05
2023-01-04T10:06:53.341Z,14.70
2023-01-04T10:12:26.732Z,16.30
2023-01-04T10:23:32.307Z,13.98
2023-01-04T10:28:57.591Z,12.40
2023-01-04T10:34:29.599Z,13.20
2023-01-04T10:39:34.230Z,10.32
2023-01-04T10:44:50.958Z,12.73
2023-01-04T10:49:59.689Z,7.57
2023-01-04T10:55:07.265Z,10.32
2023-01-04T11:00:20.177Z,8.63
2023-01-04T11:05:43.270Z,12.07
2023-01-04T11:10:55.364Z,8.82
2023-01-04T11:15:58.532Z,9.07
2023-01-04T11:21:04.259Z,11.60
2023-01-04T11:26:16.742Z,9.32
2023-01-04T11:31:31.353Z,15.63
